createdAt,value
2023-01-31T00:00:01.114Z,97452.63
2023-01-31T00:02:32.329Z,97455.94
2023-01-31T00:05:00.707Z,97452.81
2023-01-31T00:07:29.002Z,97453.69
2023-01-31T00:09:57.072Z,97450.09
2023-01-31T00:12:25.099Z,97447.91
2023-01-31T00:14:53.183Z,97442.84
2023-01-31T00:17:21.295Z,97446.84
2023-01-31T00:19:50.734Z,97442.66
2023-01-31T00:22:18.846Z,97444.09
2023-01-31T00:24:47.023Z,97436.50
2023-01-31T00:27:15.329Z,97447.91
2023-01-31T00:29:43.462Z,97443.19
2023-01-31T00:32:11.615Z,97444.59
2023-01-31T00:34:39.779Z,97437.00
2023-01-31T00:37:09.160Z,97434.56
2023-01-31T00:39:37.259Z,97426.72
2023-01-31T00:42:05.474Z,97424.53
2023-01-31T00:44:34.564Z,97426.84
2023-01-31T00:47:02.728Z,97423.41
2023-01-31T00:49:30.899Z,97425.38
2023-01-31T00:51:59.377Z,97425.97
2023-01-31T00:54:28.782Z,97417.56
2023-01-31T00:56:57.860Z,97409.81
2023-01-31T00:59:25.941Z,97408.34
2023-01-31T01:01:54.073Z,97408.53
2023-01-31T01:04:22.130Z,97409.91
2023-01-31T01:06:50.780Z,97409.38
2023-01-31T01:09:18.907Z,97417.00
2023-01-31T01:11:50.662Z,97414.94
2023-01-31T01:14:19.023Z,97415.03
2023-01-31T01:16:48.881Z,97410.28
2023-01-31T01:19:20.598Z,97416.88
2023-01-31T01:21:48.740Z,97411.41
2023-01-31T01:24:20.181Z,97416.88
2023-01-31T01:26:50.078Z,97414.09
2023-01-31T01:29:18.178Z,97404.34
2023-01-31T01:31:46.705Z,97410.69
2023-01-31T01:34:17.714Z,97410.00
2023-01-31T01:36:48.090Z,97398.47
2023-01-31T01:39:18.083Z,97408.78
2023-01-31T01:41:46.967Z,97405.75
2023-01-31T01:44:52.893Z,97414.44
2023-01-31T01:47:35.454Z,97403.88
2023-01-31T01:50:13.130Z,97407.88
2023-01-31T01:52:48.863Z,97409.56
2023-01-31T01:55:25.009Z,97414.78
2023-01-31T01:58:00.468Z,97409.09
2023-01-31T02:00:33.900Z,97403.28
2023-01-31T02:03:05.393Z,97407.66
2023-01-31T02:05:38.029Z,97404.72
2023-01-31T02:08:06.932Z,97406.09
2023-01-31T02:10:41.928Z,97414.50
2023-01-31T02:13:10.505Z,97408.34
2023-01-31T02:15:40.315Z,97421.09
2023-01-31T02:18:09.534Z,97420.59
2023-01-31T02:21:33.725Z,97420.31
2023-01-31T02:24:38.074Z,97426.41
2023-01-31T02:27:55.099Z,97431.97
2023-01-31T02:31:00.563Z,97434.28
2023-01-31T02:33:37.413Z,97445.22
2023-01-31T02:36:19.576Z,97444.06
2023-01-31T02:39:03.383Z,97446.69
2023-01-31T02:41:42.477Z,97460.06
2023-01-31T02:44:43.096Z,97456.47
2023-01-31T02:47:25.896Z,97449.38
2023-01-31T02:50:03.537Z,97450.22
2023-01-31T02:52:39.792Z,97454.47
2023-01-31T02:55:36.593Z,97463.59
2023-01-31T02:58:10.617Z,97459.03
2023-01-31T03:00:41.962Z,97461.69
2023-01-31T03:03:20.371Z,97460.06
2023-01-31T03:06:59.983Z,97471.91
2023-01-31T03:09:39.085Z,97467.34
2023-01-31T03:12:41.296Z,97466.22
2023-01-31T03:15:52.231Z,97469.88
2023-01-31T03:18:24.975Z,97456.97
2023-01-31T03:21:01.209Z,97459.28
2023-01-31T03:23:33.479Z,97455.09
2023-01-31T03:28:42.202Z,97460.47
2023-01-31T03:31:18.993Z,97456.88
2023-01-31T03:33:52.273Z,97467.31
2023-01-31T03:36:31.025Z,97460.75
2023-01-31T03:39:17.724Z,97462.19
2023-01-31T03:41:57.728Z,97474.78
2023-01-31T03:44:36.167Z,97479.69
2023-01-31T03:47:12.409Z,97474.44
2023-01-31T03:49:43.435Z,97477.19
2023-01-31T03:52:13.804Z,97474.25
2023-01-31T03:54:47.227Z,97474.63
2023-01-31T03:57:25.131Z,97479.69
2023-01-31T03:59:59.121Z,97475.91
2023-01-31T04:02:35.026Z,97475.22
2023-01-31T04:05:10.133Z,97482.25
2023-01-31T04:07:42.415Z,97485.94
2023-01-31T04:10:18.580Z,97493.72
2023-01-31T04:12:48.557Z,97491.25
2023-01-31T04:15:16.963Z,97496.78
2023-01-31T04:17:45.661Z,97500.53
2023-01-31T04:20:14.184Z,97494.91
2023-01-31T04:22:42.585Z,97501.63
2023-01-31T04:25:11.418Z,97489.34
2023-01-31T04:27:39.972Z,97478.91
2023-01-31T04:30:11.901Z,97494.06
2023-01-31T04:32:40.300Z,97493.22
2023-01-31T04:35:09.342Z,97488.50
2023-01-31T04:37:37.759Z,97491.81
2023-01-31T04:40:07.548Z,97490.09
2023-01-31T04:42:35.662Z,97491.88
2023-01-31T04:45:04.013Z,97497.09
2023-01-31T04:47:33.529Z,97496.25
2023-01-31T04:50:01.725Z,97491.50
2023-01-31T04:52:29.899Z,97494.50
2023-01-31T04:54:57.964Z,97488.44
2023-01-31T04:57:26.074Z,97488.59
2023-01-31T04:59:54.151Z,97474.19
2023-01-31T05:02:23.412Z,97474.66
2023-01-31T05:04:52.951Z,97480.53
2023-01-31T05:07:21.112Z,97477.25
2023-01-31T05:09:49.154Z,97492.28
2023-01-31T05:12:17.374Z,97495.22
2023-01-31T05:14:45.570Z,97489.81
2023-01-31T05:17:13.974Z,97477.63
2023-01-31T05:19:42.482Z,97489.03
2023-01-31T05:22:14.235Z,97485.41
2023-01-31T05:24:43.244Z,97488.50
2023-01-31T05:27:11.605Z,97488.38
2023-01-31T05:29:39.827Z,97485.63
2023-01-31T05:32:08.515Z,97488.06
2023-01-31T05:34:39.627Z,97495.13
2023-01-31T05:37:08.035Z,97494.84
2023-01-31T05:39:37.761Z,97495.81
2023-01-31T05:42:06.526Z,97492.91
2023-01-31T05:44:34.675Z,97486.03
2023-01-31T05:47:02.764Z,97496.84
2023-01-31T05:49:33.397Z,97488.56
2023-01-31T05:52:02.185Z,97492.69
2023-01-31T05:54:30.351Z,97495.34
2023-01-31T05:57:00.247Z,97495.03
2023-01-31T05:59:31.051Z,97493.69
2023-01-31T06:01:59.799Z,97494.31
2023-01-31T06:04:28.051Z,97492.00
2023-01-31T06:06:56.192Z,97490.22
2023-01-31T06:09:24.711Z,97494.25
2023-01-31T06:11:52.765Z,97489.69
2023-01-31T06:14:22.907Z,97504.16
2023-01-31T06:16:50.994Z,97501.47
2023-01-31T06:19:19.009Z,97503.28
2023-01-31T06:21:47.228Z,97507.97
2023-01-31T06:24:15.287Z,97513.31
2023-01-31T06:26:43.450Z,97510.28
2023-01-31T06:29:11.854Z,97506.19
2023-01-31T06:31:44.439Z,97510.56
2023-01-31T06:34:12.884Z,97509.75
2023-01-31T06:36:41.032Z,97517.19
2023-01-31T06:39:09.250Z,97517.94
2023-01-31T06:41:37.329Z,97518.31
2023-01-31T06:44:05.651Z,97523.09
2023-01-31T06:46:34.078Z,97531.81
2023-01-31T06:49:03.940Z,97528.41
2023-01-31T06:51:32.649Z,97520.44
2023-01-31T06:54:00.794Z,97521.50
2023-01-31T06:56:28.892Z,97524.38
2023-01-31T06:58:56.987Z,97518.19
2023-01-31T07:01:26.339Z,97510.69
2023-01-31T07:03:54.535Z,97512.63
2023-01-31T07:10:49.496Z,97519.88
2023-01-31T07:13:19.800Z,97520.53
2023-01-31T07:15:47.894Z,97522.50
2023-01-31T07:18:20.923Z,97518.31
2023-01-31T07:20:49.072Z,97521.81
2023-01-31T07:23:17.262Z,97525.09
2023-01-31T07:25:45.417Z,97519.28
2023-01-31T07:28:14.733Z,97518.03
2023-01-31T07:30:43.775Z,97526.97
2023-01-31T07:33:12.311Z,97531.19
2023-01-31T07:35:40.337Z,97533.78
2023-01-31T07:38:10.427Z,97525.56
2023-01-31T07:40:40.327Z,97522.56
2023-01-31T07:43:08.467Z,97529.66
2023-01-31T07:45:38.428Z,97524.97
2023-01-31T07:48:07.404Z,97521.63
2023-01-31T07:50:35.454Z,97526.16
2023-01-31T07:53:03.553Z,97522.81
2023-01-31T07:55:32.065Z,97535.06
2023-01-31T07:58:00.149Z,97531.41
2023-01-31T08:00:45.648Z,97535.91
2023-01-31T08:03:36.343Z,97537.59
2023-01-31T08:06:08.204Z,97549.34
2023-01-31T08:08:37.280Z,97549.63
2023-01-31T08:11:06.050Z,97550.47
2023-01-31T08:13:35.138Z,97555.88
2023-01-31T08:16:05.740Z,97548.56
2023-01-31T08:18:35.476Z,97553.03
2023-01-31T08:21:03.751Z,97545.41
2023-01-31T08:23:32.133Z,97545.91
2023-01-31T08:26:06.470Z,97537.91
2023-01-31T08:28:35.258Z,97541.19
2023-01-31T08:31:08.904Z,97530.09
2023-01-31T08:33:39.308Z,97525.56
2023-01-31T08:36:13.382Z,97520.34
2023-01-31T08:38:42.064Z,97520.97
2023-01-31T08:41:10.402Z,97517.91
2023-01-31T08:43:54.351Z,97513.00
2023-01-31T08:46:25.389Z,97514.16
2023-01-31T08:48:55.059Z,97506.16
2023-01-31T08:51:23.911Z,97509.44
2023-01-31T08:53:52.082Z,97502.44
2023-01-31T08:56:21.707Z,97501.59
2023-01-31T08:58:50.094Z,97506.19
2023-01-31T09:01:20.904Z,97512.19
2023-01-31T09:03:50.486Z,97509.22
2023-01-31T09:06:22.450Z,97506.28
2023-01-31T09:08:50.465Z,97507.63
2023-01-31T09:11:19.458Z,97508.94
2023-01-31T09:13:51.236Z,97506.00
2023-01-31T09:16:21.008Z,97506.66
2023-01-31T09:18:49.273Z,97502.91
2023-01-31T09:21:21.233Z,97500.31
2023-01-31T09:23:54.852Z,97503.06
2023-01-31T09:26:22.979Z,97502.75
2023-01-31T09:28:51.146Z,97505.06
2023-01-31T09:31:21.641Z,97500.13
2023-01-31T09:33:49.982Z,97490.34
2023-01-31T09:36:22.360Z,97486.59
2023-01-31T09:38:54.850Z,97493.47
2023-01-31T09:41:30.739Z,97493.97
2023-01-31T09:44:04.253Z,97488.25
2023-01-31T09:46:38.271Z,97482.03
2023-01-31T09:49:15.997Z,97481.56
2023-01-31T09:51:45.497Z,97480.41
2023-01-31T09:54:22.240Z,97495.75
2023-01-31T09:57:02.187Z,97497.22
2023-01-31T09:59:42.848Z,97499.66
2023-01-31T10:02:31.196Z,97501.63
2023-01-31T10:05:14.094Z,97505.91
2023-01-31T10:07:54.804Z,97500.97
2023-01-31T10:10:32.396Z,97501.16
2023-01-31T10:13:04.738Z,97498.53
2023-01-31T10:15:39.998Z,97504.75
2023-01-31T10:18:15.437Z,97509.31
2023-01-31T10:20:50.140Z,97510.47
2023-01-31T10:23:27.888Z,97504.28
2023-01-31T10:26:02.374Z,97509.03
2023-01-31T10:28:39.388Z,97511.97
2023-01-31T10:31:16.336Z,97505.13
2023-01-31T10:33:52.425Z,97500.53
2023-01-31T10:36:29.044Z,97495.66
2023-01-31T10:39:05.429Z,97509.22
2023-01-31T10:41:45.866Z,97502.19
2023-01-31T10:44:28.951Z,97500.34
2023-01-31T10:46:59.618Z,97502.22
2023-01-31T10:49:30.022Z,97498.00
2023-01-31T10:52:17.636Z,97509.75
2023-01-31T10:55:00.289Z,97498.31
2023-01-31T10:57:28.404Z,97504.53
2023-01-31T10:59:57.005Z,97483.63
2023-01-31T11:02:27.848Z,97502.25
2023-01-31T11:04:57.819Z,97490.63
2023-01-31T11:07:26.480Z,97490.16
2023-01-31T11:09:57.072Z,97487.53
2023-01-31T11:12:43.617Z,97493.41
2023-01-31T11:15:19.497Z,97487.22
2023-01-31T11:17:48.715Z,97476.56
2023-01-31T11:20:28.204Z,97469.25
2023-01-31T11:22:58.998Z,97451.91
2023-01-31T11:25:31.946Z,97448.31
2023-01-31T11:28:04.670Z,97439.44
2023-01-31T11:30:36.906Z,97422.13
2023-01-31T11:33:05.691Z,97427.63
2023-01-31T11:35:36.031Z,97427.78
2023-01-31T11:38:23.461Z,97419.00
2023-01-31T11:40:53.236Z,97390.84
2023-01-31T11:43:27.431Z,97400.16
2023-01-31T11:45:59.555Z,97393.97
2023-01-31T11:48:33.509Z,97405.63
2023-01-31T11:51:03.614Z,97411.34
2023-01-31T11:53:40.241Z,97429.16
2023-01-31T11:56:17.071Z,97427.03
2023-01-31T11:58:49.247Z,97431.28
2023-01-31T12:01:20.743Z,97444.06
2023-01-31T12:04:01.870Z,97439.47
2023-01-31T12:06:34.427Z,97426.22
2023-01-31T12:09:05.533Z,97420.00
2023-01-31T12:11:37.318Z,97410.22
2023-01-31T12:14:16.060Z,97404.31
2023-01-31T12:16:45.565Z,97410.69
2023-01-31T12:19:30.503Z,97398.09
2023-01-31T12:22:08.301Z,97388.78
2023-01-31T12:24:48.019Z,97388.94
2023-01-31T12:27:36.140Z,97369.50
2023-01-31T12:30:25.908Z,97362.16
2023-01-31T12:33:09.709Z,97353.34
2023-01-31T12:35:49.532Z,97361.03
2023-01-31T12:38:36.559Z,97359.72
2023-01-31T12:41:21.299Z,97360.88
2023-01-31T12:44:18.466Z,97379.97
2023-01-31T12:47:11.872Z,97367.41
2023-01-31T12:50:03.693Z,97350.22
2023-01-31T12:52:44.982Z,97356.44
2023-01-31T12:55:27.278Z,97344.84
2023-01-31T12:58:19.235Z,97353.50
2023-01-31T13:00:59.019Z,97351.03
2023-01-31T13:03:46.272Z,97333.91
2023-01-31T13:06:19.624Z,97326.38
2023-01-31T13:09:06.709Z,97326.22
2023-01-31T13:11:44.928Z,97333.06
2023-01-31T13:14:20.006Z,97327.38
2023-01-31T13:16:55.499Z,97326.06
2023-01-31T13:19:29.059Z,97316.59
2023-01-31T13:22:02.032Z,97318.06
2023-01-31T13:24:37.207Z,97313.66
2023-01-31T13:27:12.575Z,97308.41
2023-01-31T13:29:45.549Z,97307.09
2023-01-31T13:32:24.725Z,97312.47
2023-01-31T13:34:58.666Z,97306.13
2023-01-31T13:37:30.436Z,97305.31
2023-01-31T13:40:08.504Z,97309.06
2023-01-31T13:42:37.009Z,97317.75
2023-01-31T13:45:11.287Z,97310.88
2023-01-31T13:47:49.875Z,97317.56
2023-01-31T13:50:33.906Z,97317.22
2023-01-31T13:53:05.826Z,97305.44
2023-01-31T13:55:39.318Z,97306.44
2023-01-31T13:58:17.371Z,97306.75
2023-01-31T14:00:49.408Z,97306.97
2023-01-31T14:03:21.614Z,97319.34
2023-01-31T14:06:00.000Z,97312.78
2023-01-31T14:08:59.944Z,97305.25
2023-01-31T14:11:43.874Z,97301.31
2023-01-31T14:14:41.122Z,97293.66
2023-01-31T14:17:13.644Z,97280.72
2023-01-31T14:20:06.954Z,97270.44
2023-01-31T14:22:37.144Z,97270.28
2023-01-31T14:25:15.521Z,97277.94
2023-01-31T14:28:02.294Z,97269.75
2023-01-31T14:30:39.937Z,97279.06
2023-01-31T14:33:22.968Z,97262.53
2023-01-31T14:36:41.040Z,97253.69
2023-01-31T14:40:09.502Z,97258.59
2023-01-31T14:43:22.090Z,97267.44
2023-01-31T14:46:26.551Z,97257.28
2023-01-31T14:49:24.525Z,97252.72
2023-01-31T14:52:28.309Z,97271.84
2023-01-31T14:55:21.579Z,97276.25
2023-01-31T14:57:53.395Z,97279.03
2023-01-31T15:00:26.912Z,97267.94
2023-01-31T15:03:09.120Z,97264.81
2023-01-31T15:05:45.356Z,97258.91
2023-01-31T15:08:43.466Z,97270.88
2023-01-31T15:11:45.215Z,97271.69
2023-01-31T15:14:35.221Z,97285.09
2023-01-31T15:17:31.572Z,97280.50
2023-01-31T15:20:17.000Z,97287.69
2023-01-31T15:22:46.600Z,97288.69
2023-01-31T15:25:29.175Z,97296.00
2023-01-31T15:28:00.524Z,97288.84
2023-01-31T15:30:34.002Z,97299.78
2023-01-31T15:33:08.303Z,97288.84
2023-01-31T15:35:47.516Z,97287.69
2023-01-31T15:38:28.157Z,97296.03
2023-01-31T15:41:20.982Z,97290.03
2023-01-31T15:43:53.268Z,97295.25
2023-01-31T15:46:29.481Z,97296.91
2023-01-31T15:48:58.793Z,97303.13
2023-01-31T15:51:27.646Z,97300.47
2023-01-31T15:54:05.866Z,97307.53
2023-01-31T15:56:42.202Z,97299.88
2023-01-31T15:59:16.092Z,97302.16
2023-01-31T16:01:49.797Z,97307.88
2023-01-31T16:04:17.926Z,97302.31
2023-01-31T16:06:48.348Z,97299.06
2023-01-31T16:09:27.616Z,97289.91
2023-01-31T16:11:56.303Z,97294.66
2023-01-31T16:14:26.954Z,97291.41
2023-01-31T16:19:53.871Z,97290.75
2023-01-31T16:22:29.101Z,97287.50
2023-01-31T16:25:00.398Z,97293.22
2023-01-31T16:27:32.132Z,97286.03
2023-01-31T16:30:02.120Z,97287.69
2023-01-31T16:32:35.142Z,97294.19
2023-01-31T16:35:07.101Z,97296.81
2023-01-31T16:37:38.818Z,97300.59
2023-01-31T16:40:20.075Z,97304.84
2023-01-31T16:42:48.949Z,97310.06
2023-01-31T16:45:32.082Z,97307.91
2023-01-31T16:48:21.755Z,97312.97
2023-01-31T16:50:50.387Z,97320.34
2023-01-31T16:53:26.583Z,97320.19
2023-01-31T16:56:23.101Z,97319.84
2023-01-31T16:58:56.785Z,97319.84
2023-01-31T17:01:30.313Z,97315.75
2023-01-31T17:04:18.780Z,97320.19
2023-01-31T17:07:03.150Z,97329.97
2023-01-31T17:09:31.301Z,97321.00
2023-01-31T17:11:59.639Z,97327.38
2023-01-31T17:14:28.180Z,97328.97
2023-01-31T17:16:57.647Z,97326.38
2023-01-31T17:19:26.302Z,97332.59
2023-01-31T17:21:54.366Z,97329.34
2023-01-31T17:24:23.499Z,97321.13
2023-01-31T17:26:53.733Z,97325.41
2023-01-31T17:29:22.052Z,97332.44
2023-01-31T17:31:50.203Z,97335.03
2023-01-31T17:34:20.578Z,97333.22
2023-01-31T17:37:16.057Z,97329.31
2023-01-31T17:39:44.353Z,97320.16
2023-01-31T17:42:19.227Z,97324.69
2023-01-31T17:44:47.847Z,97326.66
2023-01-31T17:47:17.372Z,97318.81
2023-01-31T17:49:46.780Z,97328.44
2023-01-31T17:52:14.772Z,97322.91
2023-01-31T17:54:42.806Z,97324.53
2023-01-31T17:57:34.884Z,97322.59
2023-01-31T18:00:06.871Z,97325.03
2023-01-31T18:02:35.459Z,97309.16
2023-01-31T18:05:05.169Z,97302.63
2023-01-31T18:07:36.877Z,97307.53
2023-01-31T18:10:07.046Z,97303.81
2023-01-31T18:12:36.491Z,97294.31
2023-01-31T18:15:06.139Z,97291.38
2023-01-31T18:17:34.367Z,97286.94
2023-01-31T18:20:04.162Z,97293.50
2023-01-31T18:22:32.188Z,97291.03
2023-01-31T18:25:00.251Z,97282.53
2023-01-31T18:27:28.550Z,97284.84
2023-01-31T18:29:57.125Z,97288.25
2023-01-31T18:32:25.150Z,97274.53
2023-01-31T18:34:54.040Z,97284.03
2023-01-31T18:37:23.923Z,97286.34
2023-01-31T18:39:53.280Z,97284.53
2023-01-31T18:42:22.694Z,97290.59
2023-01-31T18:44:51.124Z,97277.34
2023-01-31T18:47:19.409Z,97280.28
2023-01-31T18:49:47.518Z,97281.44
2023-01-31T18:52:16.791Z,97288.31
2023-01-31T18:54:49.168Z,97284.56
2023-01-31T18:57:17.253Z,97290.47
2023-01-31T18:59:45.312Z,97294.19
2023-01-31T19:02:14.385Z,97295.66
2023-01-31T19:04:42.489Z,97292.91
2023-01-31T19:07:11.100Z,97279.47
2023-01-31T19:09:39.154Z,97279.47
2023-01-31T19:12:08.613Z,97277.38
2023-01-31T19:14:36.637Z,97274.44
2023-01-31T19:17:05.148Z,97266.53
2023-01-31T19:19:35.831Z,97265.88
2023-01-31T19:22:04.433Z,97254.97
2023-01-31T19:24:32.478Z,97268.81
2023-01-31T19:27:01.223Z,97274.44
2023-01-31T19:29:31.189Z,97279.66
2023-01-31T19:31:59.200Z,97276.88
2023-01-31T19:34:27.262Z,97277.53
2023-01-31T19:36:56.236Z,97272.94
2023-01-31T19:39:24.317Z,97278.66
2023-01-31T19:41:52.307Z,97265.09
2023-01-31T19:44:21.276Z,97279.13
2023-01-31T19:46:52.117Z,97276.88
2023-01-31T19:49:22.053Z,97276.66
2023-01-31T19:51:50.203Z,97269.97
2023-01-31T19:54:20.762Z,97263.28
2023-01-31T19:56:48.828Z,97269.50
2023-01-31T19:59:16.838Z,97254.44
2023-01-31T20:01:44.891Z,97256.44
2023-01-31T20:04:14.233Z,97258.19
2023-01-31T20:06:42.284Z,97262.63
2023-01-31T20:09:15.955Z,97264.44
2023-01-31T20:11:44.132Z,97264.72
2023-01-31T20:14:12.153Z,97264.28
2023-01-31T20:16:40.259Z,97267.06
2023-01-31T20:19:08.360Z,97278.19
2023-01-31T20:21:38.988Z,97270.00
2023-01-31T20:24:08.223Z,97273.28
2023-01-31T20:26:37.221Z,97272.63
2023-01-31T20:29:05.236Z,97280.31
2023-01-31T20:31:33.298Z,97267.56
2023-01-31T20:34:01.367Z,97267.72
2023-01-31T20:36:29.381Z,97266.25
2023-01-31T20:38:58.794Z,97267.88
2023-01-31T20:41:26.805Z,97271.94
2023-01-31T20:43:56.383Z,97271.28
2023-01-31T20:46:24.456Z,97273.91
2023-01-31T20:48:52.813Z,97281.09
2023-01-31T20:51:20.865Z,97282.88
2023-01-31T20:53:48.907Z,97283.19
2023-01-31T20:56:20.156Z,97291.81
2023-01-31T20:58:48.181Z,97285.16
2023-01-31T21:01:16.890Z,97295.13
2023-01-31T21:03:44.926Z,97285.66
2023-01-31T21:06:13.034Z,97283.19
2023-01-31T21:08:41.409Z,97270.63
2023-01-31T21:11:11.901Z,97268.63
2023-01-31T21:13:43.312Z,97261.44
2023-01-31T21:16:15.231Z,97249.97
2023-01-31T21:18:44.268Z,97255.72
2023-01-31T21:21:22.517Z,97251.94
2023-01-31T21:23:52.879Z,97239.06
2023-01-31T21:26:23.853Z,97230.66
2023-01-31T21:28:55.252Z,97220.56
2023-01-31T21:31:23.497Z,97220.75
2023-01-31T21:33:53.311Z,97227.13
2023-01-31T21:36:24.333Z,97234.47
2023-01-31T21:38:54.289Z,97252.78
2023-01-31T21:41:40.245Z,97244.78
2023-01-31T21:44:09.862Z,97253.91
2023-01-31T21:46:37.962Z,97251.78
2023-01-31T21:49:06.113Z,97252.28
2023-01-31T21:51:34.107Z,97254.56
2023-01-31T21:54:02.114Z,97255.03
2023-01-31T21:56:30.900Z,97259.97
2023-01-31T21:58:59.198Z,97254.28
2023-01-31T22:01:30.814Z,97258.34
2023-01-31T22:03:59.599Z,97259.63
2023-01-31T22:06:31.741Z,97258.84
2023-01-31T22:09:02.227Z,97272.09
2023-01-31T22:11:33.059Z,97280.94
2023-01-31T22:14:02.820Z,97286.50
2023-01-31T22:16:32.329Z,97284.88
2023-01-31T22:19:03.386Z,97295.97
2023-01-31T22:21:33.657Z,97281.28
2023-01-31T22:24:03.482Z,97284.53
2023-01-31T22:26:34.041Z,97276.06
2023-01-31T22:29:05.064Z,97284.91
2023-01-31T22:31:35.048Z,97289.75
2023-01-31T22:34:06.408Z,97283.56
2023-01-31T22:36:35.336Z,97288.13
2023-01-31T22:39:03.751Z,97280.97
2023-01-31T22:41:31.948Z,97271.00
2023-01-31T22:44:00.020Z,97273.13
2023-01-31T22:46:31.985Z,97270.81
2023-01-31T22:49:01.389Z,97275.38
2023-01-31T22:51:30.497Z,97272.44
2023-01-31T22:53:59.447Z,97269.84
2023-01-31T22:56:30.104Z,97275.22
2023-01-31T22:58:59.352Z,97266.44
2023-01-31T23:01:30.011Z,97262.81
2023-01-31T23:04:03.991Z,97267.56
2023-01-31T23:06:32.092Z,97263.00
2023-01-31T23:09:00.207Z,97262.00
2023-01-31T23:11:28.672Z,97254.31
2023-01-31T23:13:57.675Z,97245.50
2023-01-31T23:16:47.704Z,97243.69
2023-01-31T23:19:17.275Z,97247.94
2023-01-31T23:21:45.551Z,97236.84
2023-01-31T23:24:15.282Z,97238.00
2023-01-31T23:26:43.552Z,97242.41
2023-01-31T23:29:12.191Z,97236.53
2023-01-31T23:31:40.600Z,97234.88
2023-01-31T23:34:08.703Z,97232.44
2023-01-31T23:36:38.495Z,97221.00
2023-01-31T23:39:07.116Z,97228.53
2023-01-31T23:41:35.154Z,97231.13
2023-01-31T23:44:03.538Z,97213.97
2023-01-31T23:46:31.781Z,97215.97
2023-01-31T23:48:59.822Z,97216.97
2023-01-31T23:51:30.627Z,97219.22
2023-01-31T23:54:00.408Z,97229.53
2023-01-31T23:56:28.436Z,97226.78
2023-01-31T23:58:56.476Z,97224.34
